Time;durP1;ratioP1;P1;durP2;ratioP2;P2;SDS_P1;SDS_P2;PMS_P1;PMS_P2;Temp;Humidity;BMP_temperature;BMP_pressure;BME280_temperature;BME280_humidity;BME280_pressure;Samples;Min_cycle;Max_cycle;Signal;HPM_P1;HPM_P2
2021/10/27 00:02:16;;;;;;;6.25;4.57;;;;;;;6.10;50.66;94618.00;4968846;28;20582;-74
2021/10/27 00:04:41;;;;;;;7.07;4.45;;;;;;;5.91;50.83;94589.50;4970879;28;20051;-74
2021/10/27 00:07:07;;;;;;;4.78;3.92;;;;;;;6.06;50.54;94587.91;4966590;28;20041;-73
2021/10/27 00:09:32;;;;;;;5.40;3.60;;;;;;;6.23;50.38;94604.28;4967006;28;20045;-74
2021/10/27 00:11:58;;;;;;;6.15;4.28;;;;;;;6.25;50.26;94599.53;4967780;28;20042;-74
2021/10/27 00:14:23;;;;;;;6.10;4.00;;;;;;;5.92;50.32;94553.34;4974309;28;20039;-75
2021/10/27 00:16:48;;;;;;;7.80;4.50;;;;;;;6.37;49.80;94597.38;4963000;28;20501;-74
2021/10/27 00:19:14;;;;;;;6.70;4.70;;;;;;;6.35;49.98;94591.59;4972720;28;20461;-74
2021/10/27 00:21:40;;;;;;;5.68;4.10;;;;;;;6.25;49.96;94583.69;4966552;28;20030;-74
2021/10/27 00:24:05;;;;;;;6.22;4.57;;;;;;;6.18;50.25;94585.78;4966498;28;20066;-74
2021/10/27 00:26:31;;;;;;;8.50;4.88;;;;;;;6.26;50.15;94601.88;4965473;28;20045;-75
2021/10/27 00:28:56;;;;;;;7.05;4.38;;;;;;;6.18;50.17;94583.16;4969087;28;20526;-74
2021/10/27 00:31:22;;;;;;;6.25;4.10;;;;;;;6.19;50.59;94600.59;4957724;28;20516;-74
2021/10/27 00:33:47;;;;;;;8.30;4.32;;;;;;;6.19;50.51;94595.31;4959745;28;20221;-74
2021/10/27 00:36:13;;;;;;;6.18;4.50;;;;;;;6.17;50.03;94586.84;4972472;28;20038;-74
2021/10/27 00:38:38;;;;;;;8.25;4.53;;;;;;;6.08;50.34;94597.13;4965446;28;20061;-74
2021/10/27 00:41:07;;;;;;;6.10;4.60;;;;;;;6.22;49.67;94578.91;4964324;28;20050;-74
2021/10/27 00:43:33;;;;;;;8.27;6.20;;;;;;;6.06;50.04;94564.13;4965014;28;20382;-74
2021/10/27 00:45:58;;;;;;;8.90;4.93;;;;;;;6.13;50.56;94588.41;4971386;28;20061;-74
2021/10/27 00:48:24;;;;;;;8.10;4.88;;;;;;;5.96;50.93;94573.66;4963013;28;20088;-74
2021/10/27 00:50:49;;;;;;;7.20;4.88;;;;;;;6.05;50.80;94584.47;4966753;28;20633;-74
2021/10/27 00:53:15;;;;;;;7.25;4.10;;;;;;;5.99;50.83;94591.59;4967772;28;20107;-74
2021/10/27 00:55:40;;;;;;;6.18;4.50;;;;;;;5.86;50.76;94576.31;4964073;28;20189;-74
2021/10/27 00:58:07;;;;;;;6.60;5.05;;;;;;;6.02;50.61;94585.78;4968227;28;20042;-75
2021/10/27 01:00:35;;;;;;;5.63;3.58;;;;;;;5.96;50.61;94589.50;4967334;28;20122;-74
2021/10/27 01:03:00;;;;;;;8.38;4.60;;;;;;;5.88;50.63;94583.94;4972756;28;20069;-74
2021/10/27 01:05:25;;;;;;;10.93;4.88;;;;;;;5.75;50.74;94564.16;4967135;28;20026;-75
2021/10/27 01:07:51;;;;;;;8.00;5.25;;;;;;;6.11;49.86;94564.13;4964553;28;20043;-74
2021/10/27 01:10:16;;;;;;;11.50;4.97;;;;;;;5.98;50.31;94574.16;4964931;28;20068;-75
2021/10/27 01:12:42;;;;;;;7.63;5.20;;;;;;;6.20;49.37;94565.19;4967855;28;20030;-74
2021/10/27 01:15:07;;;;;;;6.38;4.07;;;;;;;6.24;49.54;94593.47;4961845;28;20037;-74
2021/10/27 01:17:34;;;;;;;9.30;6.53;;;;;;;5.51;50.53;94539.34;4969600;28;20034;-74
2021/10/27 01:20:00;;;;;;;13.25;6.75;;;;;;;5.80;51.60;94595.81;4984453;28;20519;-75
2021/10/27 01:22:29;;;;;;;10.43;6.22;;;;;;;5.63;52.07;94592.63;4969069;28;20038;-75
2021/10/27 01:24:56;;;;;;;11.18;5.68;;;;;;;5.44;51.98;94573.09;4972243;28;20046;-75
2021/10/27 01:27:22;;;;;;;7.28;5.43;;;;;;;5.63;51.78;94586.59;4965028;28;20092;-75
2021/10/27 01:29:55;;;;;;;9.90;5.90;;;;;;;5.69;51.92;94591.59;4964005;28;20038;-75
2021/10/27 01:32:31;;;;;;;10.68;5.95;;;;;;;5.77;51.73;94601.66;4973376;28;20113;-75
2021/10/27 01:34:56;;;;;;;;;;;;;;;5.77;51.61;94599.00;4973303;28;20043;-74
2021/10/27 01:37:22;;;;;;;8.95;6.10;;;;;;;5.74;51.41;94588.97;4962730;28;19965;-75
2021/10/27 01:39:49;;;;;;;8.18;5.68;;;;;;;5.80;51.41;94595.81;4970393;28;20034;-74
2021/10/27 01:42:14;;;;;;;8.05;4.75;;;;;;;5.79;51.28;94594.25;4963495;28;20142;-74
2021/10/27 01:44:40;;;;;;;8.52;4.63;;;;;;;5.82;51.35;94593.69;4968139;28;20038;-75
2021/10/27 01:47:06;;;;;;;7.20;5.07;;;;;;;5.86;50.87;94592.13;4964171;28;20068;-75
2021/10/27 01:49:32;;;;;;;7.47;4.95;;;;;;;5.77;51.07;94592.94;4966872;28;20098;-75
2021/10/27 01:51:58;;;;;;;8.80;5.18;;;;;;;5.76;50.88;94586.84;4965773;28;20030;-74
2021/10/27 01:54:25;;;;;;;8.35;4.90;;;;;;;5.72;51.06;94596.38;4974379;28;20490;-74
2021/10/27 01:56:51;;;;;;;6.03;4.63;;;;;;;5.71;50.86;94583.41;4961006;28;20703;-75
2021/10/27 01:59:16;;;;;;;4.95;3.70;;;;;;;5.84;50.90;94594.25;4959747;28;20042;-75
2021/10/27 02:01:41;;;;;;;5.78;4.72;;;;;;;5.87;50.71;94598.97;4965755;28;20038;-73
2021/10/27 02:04:07;;;;;;;7.63;4.88;;;;;;;5.78;50.88;94597.13;4962200;28;20122;-73
2021/10/27 02:06:36;;;;;;;7.78;4.25;;;;;;;5.88;50.63;94602.41;4961780;28;20042;-73
2021/10/27 02:09:02;;;;;;;8.05;4.40;;;;;;;5.69;50.66;94585.50;4967551;28;20093;-74
2021/10/27 02:11:27;;;;;;;8.40;4.80;;;;;;;5.81;50.75;94605.34;4965287;28;20030;-74
2021/10/27 02:13:53;;;;;;;8.02;4.85;;;;;;;5.78;50.77;94603.19;4966951;28;20066;-74
2021/10/27 02:16:19;;;;;;;6.18;4.13;;;;;;;5.78;50.60;94599.78;4962587;28;20104;-74
2021/10/27 02:18:45;;;;;;;6.35;3.67;;;;;;;5.68;50.55;94584.72;4961907;28;20724;-74
2021/10/27 02:21:10;;;;;;;7.15;4.15;;;;;;;5.69;50.37;94585.50;4970119;28;20389;-74
2021/10/27 02:23:35;;;;;;;5.57;4.05;;;;;;;5.78;50.36;94600.56;4966639;28;20077;-74
2021/10/27 02:26:01;;;;;;;6.75;4.07;;;;;;;5.68;50.48;94597.13;4965759;28;20634;-75
2021/10/27 02:28:27;;;;;;;21.80;10.10;;;;;;;5.56;49.84;94539.34;4968326;28;20125;-73
2021/10/27 02:30:52;;;;;;;11.52;4.78;;;;;;;5.69;50.51;94623.25;4966599;28;20033;-73
2021/10/27 02:33:18;;;;;;;6.68;4.22;;;;;;;5.72;50.17;94612.19;4966081;28;20033;-74
2021/10/27 02:35:43;;;;;;;8.32;4.60;;;;;;;5.29;51.23;94599.44;4962092;28;20038;-74
2021/10/27 02:38:08;;;;;;;5.38;3.90;;;;;;;5.14;52.08;94616.81;4963604;28;20035;-74
2021/10/27 02:40:34;;;;;;;5.15;3.60;;;;;;;4.83;51.91;94558.97;4960822;28;20081;-74
2021/10/27 02:42:59;;;;;;;5.38;4.07;;;;;;;5.19;51.85;94602.84;4966606;28;20132;-74
2021/10/27 02:45:25;;;;;;;7.85;4.60;;;;;;;5.23;51.69;94605.78;4965067;28;20117;-75
2021/10/27 02:47:51;;;;;;;4.18;3.03;;;;;;;5.21;51.73;94605.22;4963645;28;20505;-74
2021/10/27 02:50:16;;;;;;;8.13;3.80;;;;;;;5.17;51.62;94610.25;4961797;28;20546;-74
2021/10/27 02:52:45;;;;;;;8.20;5.13;;;;;;;5.30;51.52;94608.94;4964753;28;20437;-74
2021/10/27 02:55:11;;;;;;;8.20;4.72;;;;;;;5.34;51.23;94615.28;4967599;28;20054;-74
2021/10/27 02:57:38;;;;;;;8.43;4.75;;;;;;;5.25;51.41;94593.09;4965515;28;20018;-74
2021/10/27 03:00:05;;;;;;;4.10;3.35;;;;;;;5.32;51.47;94612.13;4961722;28;20525;-75
2021/10/27 03:02:31;;;;;;;5.13;3.80;;;;;;;5.33;51.71;94608.44;4966164;28;20307;-74
2021/10/27 03:04:56;;;;;;;3.95;3.50;;;;;;;5.34;51.17;94604.72;4966643;28;20061;-74
2021/10/27 03:07:21;;;;;;;4.70;3.53;;;;;;;5.27;51.47;94594.44;4963497;28;20797;-74
2021/10/27 03:09:47;;;;;;;6.22;4.88;;;;;;;5.49;51.03;94612.69;4967280;28;20022;-74
2021/10/27 03:12:12;;;;;;;6.60;3.60;;;;;;;5.37;51.34;94606.84;4962187;28;20081;-74
2021/10/27 03:14:38;;;;;;;6.18;4.20;;;;;;;5.40;51.17;94596.56;4963505;28;20533;-74
2021/10/27 03:17:03;;;;;;;5.90;4.38;;;;;;;5.45;51.23;94595.78;4964718;28;20116;-74
2021/10/27 03:19:28;;;;;;;6.35;4.35;;;;;;;5.37;51.04;94599.75;4961420;28;20268;-74
2021/10/27 03:21:54;;;;;;;7.43;4.60;;;;;;;5.41;51.10;94610.56;4964730;28;20121;-74
2021/10/27 03:24:19;;;;;;;6.32;4.70;;;;;;;5.59;50.94;94633.81;4971340;28;20381;-74
2021/10/27 03:26:45;;;;;;;7.22;4.55;;;;;;;5.53;50.79;94624.28;4968402;28;20094;-75
2021/10/27 03:29:11;;;;;;;6.18;4.30;;;;;;;5.43;50.83;94619.00;4971496;28;20501;-75
2021/10/27 03:31:36;;;;;;;7.60;4.72;;;;;;;5.51;50.71;94616.66;4966643;28;20568;-75
2021/10/27 03:34:02;;;;;;;8.02;5.53;;;;;;;5.64;50.59;94627.75;4970457;28;20567;-75
2021/10/27 03:36:29;;;;;;;8.30;5.05;;;;;;;5.54;50.88;94621.41;4970362;28;20109;-75
2021/10/27 03:38:55;;;;;;;8.38;4.55;;;;;;;5.46;51.00;94619.28;4966157;28;20050;-75
2021/10/27 03:41:20;;;;;;;8.10;4.85;;;;;;;5.48;50.83;94611.88;4970835;28;20504;-74
2021/10/27 03:43:46;;;;;;;5.90;4.18;;;;;;;5.40;50.61;94598.41;4967896;28;20038;-75
2021/10/27 03:46:12;;;;;;;10.18;4.97;;;;;;;5.50;50.53;94604.50;4969910;28;20077;-75
2021/10/27 03:48:39;;;;;;;8.95;3.97;;;;;;;5.62;50.50;94627.22;4970427;28;20026;-74
2021/10/27 03:51:08;;;;;;;6.07;3.28;;;;;;;5.63;50.53;94629.59;4967966;28;20097;-74
2021/10/27 03:53:33;;;;;;;7.10;4.25;;;;;;;5.53;50.54;94613.72;4969598;28;20027;-74
2021/10/27 03:55:59;;;;;;;7.25;4.45;;;;;;;5.47;50.56;94615.59;4967405;28;20049;-75
2021/10/27 03:58:25;;;;;;;5.68;4.78;;;;;;;5.56;50.72;94623.78;4966753;28;20500;-76
2021/10/27 04:00:50;;;;;;;6.90;5.13;;;;;;;5.58;50.62;94632.22;4962738;28;20449;-75
2021/10/27 04:03:24;;;;;;;9.35;6.05;;;;;;;5.46;50.59;94613.22;4965787;28;20031;-74
2021/10/27 04:05:50;;;;;;;7.80;5.25;;;;;;;5.43;50.48;94593.41;4965982;28;20034;-75
2021/10/27 04:08:16;;;;;;;6.75;4.55;;;;;;;5.56;50.65;94623.78;4965884;28;20050;-75
2021/10/27 04:10:42;;;;;;;7.85;4.82;;;;;;;5.42;50.69;94610.31;4964207;28;20045;-74
2021/10/27 04:13:07;;;;;;;6.60;4.88;;;;;;;5.56;50.61;94629.06;4967197;28;20039;-74
2021/10/27 04:15:32;;;;;;;5.60;4.97;;;;;;;5.58;50.63;94637.50;4968160;28;20469;-75
2021/10/27 04:17:59;;;;;;;7.75;4.82;;;;;;;5.55;50.69;94616.91;4970036;28;20046;-74
2021/10/27 04:20:25;;;;;;;8.70;5.57;;;;;;;5.70;50.71;94634.63;4964204;28;20109;-74
2021/10/27 04:22:51;;;;;;;8.07;4.93;;;;;;;5.61;50.82;94623.78;4967517;28;20596;-74
2021/10/27 04:25:16;;;;;;;9.63;5.22;;;;;;;5.49;50.96;94607.41;4970419;28;20145;-74
2021/10/27 04:27:41;;;;;;;6.65;4.65;;;;;;;5.52;51.00;94622.72;4965312;28;20034;-75
2021/10/27 04:30:08;;;;;;;7.95;5.40;;;;;;;5.54;51.26;94634.59;4966562;28;20018;-74
2021/10/27 04:32:33;;;;;;;9.30;5.38;;;;;;;5.36;51.03;94602.63;4969948;28;20058;-74
2021/10/27 04:34:59;;;;;;;8.98;5.65;;;;;;;5.57;50.93;94635.94;4967014;28;20247;-74
2021/10/27 04:37:26;;;;;;;6.78;5.25;;;;;;;5.50;50.71;94628.25;4973513;28;20077;-74
2021/10/27 04:39:51;;;;;;;6.28;4.43;;;;;;;5.48;50.81;94625.06;4965012;28;20472;-74
2021/10/27 04:42:17;;;;;;;7.55;5.57;;;;;;;5.47;50.92;94622.72;4971652;28;20031;-75
2021/10/27 04:44:42;;;;;;;8.48;5.53;;;;;;;5.41;50.89;94605.28;4973918;28;20149;-75
2021/10/27 04:47:08;;;;;;;9.57;5.95;;;;;;;5.40;50.76;94624.78;4969346;28;20486;-75
2021/10/27 04:49:33;;;;;;;8.88;5.60;;;;;;;5.46;50.82;94624.56;4969002;28;20039;-74
2021/10/27 04:51:58;;;;;;;12.63;6.20;;;;;;;5.50;50.83;94630.09;4970494;28;20081;-75
2021/10/27 04:54:24;;;;;;;8.20;5.95;;;;;;;5.58;50.85;94645.41;4970263;28;20473;-75
2021/10/27 04:56:49;;;;;;;11.40;6.78;;;;;;;5.50;51.02;94641.44;4973066;28;20492;-74
2021/10/27 04:59:15;;;;;;;9.65;7.43;;;;;;;5.47;51.11;94649.09;4969377;28;20081;-74
2021/10/27 05:01:48;;;;;;;7.22;6.25;;;;;;;5.50;50.96;94651.19;4966380;28;20038;-74
2021/10/27 05:04:15;;;;;;;12.57;5.80;;;;;;;5.42;51.07;94643.81;4970933;28;20568;-74
2021/10/27 05:06:42;;;;;;;12.27;7.43;;;;;;;5.46;51.19;94665.97;4962805;28;20026;-75
2021/10/27 05:09:08;;;;;;;9.48;6.20;;;;;;;5.38;51.23;94656.69;4965290;28;20029;-75
2021/10/27 05:11:34;;;;;;;9.45;6.05;;;;;;;5.42;51.30;94659.63;4967797;28;20035;-75
2021/10/27 05:13:59;;;;;;;9.90;5.70;;;;;;;5.45;51.10;94659.91;4969287;28;20058;-74
2021/10/27 05:16:24;;;;;;;12.75;7.28;;;;;;;5.09;51.08;94581.72;4967334;28;20446;-75
2021/10/27 05:18:50;;;;;;;10.52;6.68;;;;;;;5.59;50.99;94660.19;4963983;28;20031;-75
2021/10/27 05:21:15;;;;;;;11.13;7.65;;;;;;;5.45;51.20;94643.28;4965767;28;20034;-74
2021/10/27 05:23:41;;;;;;;8.32;6.22;;;;;;;5.58;51.27;94674.44;4962825;28;20093;-75
2021/10/27 05:26:06;;;;;;;9.68;6.47;;;;;;;5.57;51.68;94672.88;4967855;28;20043;-74
2021/10/27 05:28:32;;;;;;;9.48;6.78;;;;;;;5.53;51.60;94669.13;4966883;28;20146;-74
2021/10/27 05:30:58;;;;;;;11.05;7.18;;;;;;;5.59;51.70;94683.94;4966933;28;20035;-74
2021/10/27 05:33:23;;;;;;;11.10;5.93;;;;;;;5.65;51.70;94692.66;4974318;28;20030;-75
2021/10/27 05:35:48;;;;;;;9.75;6.35;;;;;;;5.65;51.65;94688.19;4964644;28;20141;-75
2021/10/27 05:38:14;;;;;;;10.38;6.97;;;;;;;5.52;52.00;94672.84;4967611;28;20399;-75
2021/10/27 05:40:39;;;;;;;10.18;7.03;;;;;;;5.65;52.21;94690.81;4966244;28;20496;-75
2021/10/27 05:43:11;;;;;;;10.60;7.00;;;;;;;5.42;52.47;94654.38;4959308;28;20034;-75
2021/10/27 05:45:37;;;;;;;12.95;7.75;;;;;;;5.70;52.62;94696.13;4968374;28;20030;-74
2021/10/27 05:48:04;;;;;;;12.02;7.20;;;;;;;5.72;52.65;94701.94;4964155;28;20101;-75
2021/10/27 05:55:48;;;;;;;17.95;10.02;;;;;;;5.90;53.02;94704.06;4964079;28;20597;-75
2021/10/27 05:58:15;;;;;;;21.85;11.73;;;;;;;5.97;52.77;94704.59;4963524;28;20034;-75
2021/10/27 06:00:43;;;;;;;22.77;11.93;;;;;;;6.02;52.89;94708.31;4967858;28;20034;-74
2021/10/27 06:03:08;;;;;;;26.45;12.77;;;;;;;6.04;52.75;94708.84;4965515;28;20032;-74
2021/10/27 06:05:34;;;;;;;24.52;12.70;;;;;;;6.16;53.07;94718.16;4964991;28;20468;-75
2021/10/27 06:08:00;;;;;;;24.05;11.35;;;;;;;6.12;52.75;94703.03;4970242;28;20049;-75
2021/10/27 06:10:26;;;;;;;20.27;10.60;;;;;;;6.33;52.80;94721.31;4963977;28;20038;-75
2021/10/27 06:12:57;;;;;;;20.40;11.00;;;;;;;6.47;52.88;94718.94;4961534;28;20576;-75
2021/10/27 06:15:23;;;;;;;17.50;9.32;;;;;;;6.57;52.90;94726.84;4985289;28;20027;-74
2021/10/27 06:17:50;;;;;;;17.75;11.93;;;;;;;6.61;53.08;94724.47;4962678;28;20046;-75
2021/10/27 06:20:16;;;;;;;20.27;11.20;;;;;;;6.55;53.75;94721.06;4965294;28;20981;-76
2021/10/27 06:22:43;;;;;;;17.67;10.90;;;;;;;6.50;53.83;94726.34;4968258;28;20042;-74
2021/10/27 06:25:11;;;;;;;20.70;12.20;;;;;;;6.31;54.42;94727.94;4961009;28;20038;-75
2021/10/27 06:27:38;;;;;;;20.13;11.38;;;;;;;6.55;54.13;94736.91;4969159;28;20112;-75
2021/10/27 06:30:11;;;;;;;26.05;14.82;;;;;;;6.82;53.60;94747.97;4961114;28;20093;-76
2021/10/27 06:35:34;;;;;;;36.03;18.73;;;;;;;7.13;52.54;94753.22;4964499;28;20105;-75
2021/10/27 06:46:31;;;;;;;29.55;16.38;;;;;;;6.64;53.52;94739.81;4961373;28;20040;-75
2021/10/27 06:48:59;;;;;;;29.33;14.17;;;;;;;6.88;52.69;94747.97;4964289;28;20053;-75
2021/10/27 06:51:25;;;;;;;25.77;13.65;;;;;;;7.12;52.42;94764.88;4966017;28;20506;-75
2021/10/27 06:53:50;;;;;;;19.92;11.63;;;;;;;7.07;52.20;94733.13;4965706;28;20542;-75
2021/10/27 06:56:18;;;;;;;30.58;15.98;;;;;;;7.30;52.20;94764.28;4959524;28;20536;-75
2021/10/27 06:58:47;;;;;;;20.15;12.98;;;;;;;6.70;53.05;94744.81;4961829;28;20104;-75
2021/10/27 07:01:20;;;;;;;23.08;13.38;;;;;;;7.13;53.04;94763.81;4970019;28;20034;-75
2021/10/27 07:17:31;;;;;;;22.90;13.90;;;;;;;6.88;54.04;94761.19;4967789;28;20141;-75
2021/10/27 07:19:57;;;;;;;25.20;13.77;;;;;;;6.10;56.23;94760.63;4970114;28;20092;-75
2021/10/27 07:22:22;;;;;;;21.83;13.27;;;;;;;6.46;55.45;94735.84;4959263;28;20030;-75
2021/10/27 07:24:48;;;;;;;27.83;14.50;;;;;;;7.05;54.51;94751.09;4966961;28;20026;-75
2021/10/27 07:27:14;;;;;;;20.20;14.68;;;;;;;6.89;54.18;94728.41;4968443;28;20014;-75
2021/10/27 07:29:43;;;;;;;23.40;13.13;;;;;;;7.24;53.85;94754.75;4965903;28;20035;-75
2021/10/27 07:32:11;;;;;;;33.05;18.73;;;;;;;7.57;53.25;94746.22;4964791;28;20122;-74
2021/10/27 07:34:42;;;;;;;23.42;14.77;;;;;;;6.62;54.98;94724.22;4968392;28;20082;-74
2021/10/27 07:40:38;;;;;;;23.48;14.48;;;;;;;6.76;54.76;94743.75;4965508;28;20158;-74
2021/10/27 07:42:40;;;;;;;;;;;;;;;6.74;56.36;94751.19;4967949;28;20042;-75
2021/10/27 07:45:06;;;;;;;36.90;21.90;;;;;;;7.16;54.83;94726.22;4966295;28;19965;-76
2021/10/27 07:47:31;;;;;;;21.48;15.27;;;;;;;7.63;53.83;94761.00;4965450;28;20149;-75
2021/10/27 07:49:57;;;;;;;22.70;14.75;;;;;;;6.76;55.42;94756.19;4964620;28;20154;-75
2021/10/27 07:52:23;;;;;;;21.83;13.23;;;;;;;6.96;55.62;94756.16;4965452;28;20043;-74
2021/10/27 07:54:48;;;;;;;17.80;13.07;;;;;;;6.97;55.18;94743.72;4960556;28;20060;-74
2021/10/27 07:57:14;;;;;;;24.05;12.85;;;;;;;6.84;55.23;94730.00;4966775;28;20265;-74
2021/10/27 07:59:39;;;;;;;24.13;13.05;;;;;;;6.75;56.59;94721.00;4967326;28;20039;-74
2021/10/27 08:02:06;;;;;;;12.73;8.45;;;;;;;6.58;55.14;94741.66;4965545;28;20057;-74
2021/10/27 08:04:35;;;;;;;11.15;8.80;;;;;;;6.42;55.73;94716.28;4969676;28;20513;-74
2021/10/27 08:07:01;;;;;;;13.02;9.88;;;;;;;6.61;56.59;94742.97;4962602;28;20054;-74
2021/10/27 08:09:27;;;;;;;11.77;8.52;;;;;;;6.69;55.64;94748.53;4964906;28;20049;-74
2021/10/27 08:11:53;;;;;;;13.93;9.00;;;;;;;6.00;56.79;94719.94;4965848;28;20046;-75
2021/10/27 08:14:18;;;;;;;16.38;10.27;;;;;;;6.27;57.14;94743.50;4966048;28;20121;-74
2021/10/27 08:16:45;;;;;;;14.30;9.63;;;;;;;6.22;57.57;94724.19;4965876;28;20047;-74
2021/10/27 08:19:10;;;;;;;13.55;8.57;;;;;;;6.30;56.88;94715.78;4966294;28;20476;-74
2021/10/27 08:21:36;;;;;;;13.18;8.82;;;;;;;6.24;57.44;94744.03;4966851;28;20145;-74
2021/10/27 08:24:02;;;;;;;14.27;8.57;;;;;;;6.38;56.74;94726.59;4970641;28;20628;-75
2021/10/27 08:26:29;;;;;;;12.15;8.50;;;;;;;6.40;56.56;94744.84;4969907;28;20039;-74
2021/10/27 08:29:00;;;;;;;13.30;8.20;;;;;;;6.59;56.41;94726.59;4968053;28;20462;-74
2021/10/27 08:31:40;;;;;;;12.57;8.85;;;;;;;6.45;56.87;94736.13;4968567;28;20054;-75
2021/10/27 08:34:13;;;;;;;9.35;7.07;;;;;;;6.38;56.58;94720.50;4969226;28;20117;-74
2021/10/27 08:36:42;;;;;;;11.55;7.72;;;;;;;6.45;55.87;94736.91;4967669;28;20031;-74
2021/10/27 08:39:08;;;;;;;12.70;8.00;;;;;;;6.79;55.31;94742.44;4967675;28;20034;-74
2021/10/27 08:41:37;;;;;;;10.23;6.55;;;;;;;6.86;54.59;94729.72;4967351;28;20129;-75
2021/10/27 08:44:03;;;;;;;11.45;7.22;;;;;;;6.63;55.84;94727.66;4964841;28;20121;-74
2021/10/27 08:46:32;;;;;;;9.65;6.53;;;;;;;6.42;54.95;94742.72;4968911;28;20059;-75
2021/10/27 08:48:58;;;;;;;8.80;5.82;;;;;;;6.64;54.90;94735.31;4969415;28;20045;-75
2021/10/27 08:51:26;;;;;;;7.32;6.03;;;;;;;7.05;54.51;94741.31;4962828;28;20030;-75
2021/10/27 08:53:53;;;;;;;11.10;6.57;;;;;;;7.42;53.66;94743.63;4964743;28;20409;-75
2021/10/27 08:56:18;;;;;;;11.10;7.50;;;;;;;7.09;53.76;94728.38;4965842;28;20035;-75
2021/10/27 08:58:48;;;;;;;20.08;10.00;;;;;;;7.65;53.35;94735.03;4965958;28;20038;-75
2021/10/27 09:01:26;;;;;;;12.10;6.70;;;;;;;7.61;53.26;94707.53;4970463;28;20034;-74
2021/10/27 09:07:10;;;;;;;9.02;6.00;;;;;;;7.23;52.92;94711.66;4970948;28;20048;-74
2021/10/27 09:43:59;;;;;;;9.50;6.10;;;;;;;8.18;52.99;94719.41;4965525;28;20046;-75
2021/10/27 09:47:01;;;;;;;10.50;6.65;;;;;;;8.15;51.93;94706.72;4968807;28;20496;-75
2021/10/27 10:05:43;;;;;;;10.53;6.83;;;;;;;8.82;49.53;94700.59;4969063;28;20049;-75
2021/10/27 10:08:08;;;;;;;9.35;7.03;;;;;;;8.12;51.42;94701.94;4965400;28;20052;-75
2021/10/27 10:10:34;;;;;;;8.57;7.32;;;;;;;8.11;50.91;94673.91;4967064;28;20034;-75
2021/10/27 10:13:00;;;;;;;10.88;8.52;;;;;;;8.86;50.57;94701.59;4969328;28;20054;-75
2021/10/27 10:15:37;;;;;;;10.85;6.90;;;;;;;8.97;49.30;94697.78;4964105;28;20028;-75
2021/10/27 10:18:02;;;;;;;6.32;5.63;;;;;;;8.40;49.91;94682.69;4962563;28;20042;-76
2021/10/27 10:20:28;;;;;;;9.23;6.70;;;;;;;8.07;50.25;94672.88;4964360;28;20054;-75
2021/10/27 10:22:53;;;;;;;8.30;5.90;;;;;;;7.98;49.35;94638.19;4962985;28;20043;-75
2021/10/27 10:25:21;;;;;;;11.65;6.50;;;;;;;8.68;48.96;94693.56;4965250;28;20046;-75
2021/10/27 10:27:49;;;;;;;10.77;7.05;;;;;;;8.99;49.01;94679.72;4962346;28;20030;-75
2021/10/27 10:30:25;;;;;;;8.18;5.35;;;;;;;8.88;48.39;94688.84;4961430;28;20718;-76
2021/10/27 10:33:05;;;;;;;12.32;6.10;;;;;;;8.42;49.65;94666.47;4967729;28;20053;-74
2021/10/27 10:36:01;;;;;;;10.32;6.55;;;;;;;8.72;49.35;94674.16;4965616;28;20093;-75
2021/10/27 10:41:28;;;;;;;7.07;5.90;;;;;;;8.45;48.91;94642.88;4968921;28;20424;-75
2021/10/27 11:24:55;;;;;;;7.78;5.22;;;;;;;10.18;47.43;94642.31;4958707;28;20053;-74
2021/10/27 11:40:41;;;;;;;12.73;6.97;;;;;;;10.46;46.25;94631.81;4962952;28;20405;-75
2021/10/27 11:45:42;;;;;;;8.40;5.82;;;;;;;10.47;45.24;94634.16;4967291;28;20034;-75
2021/10/27 11:48:21;;;;;;;8.88;6.18;;;;;;;10.83;44.98;94623.69;4966713;28;20157;-75
2021/10/27 11:50:48;;;;;;;6.15;4.93;;;;;;;11.34;43.58;94607.53;4966588;28;20065;-74
2021/10/27 11:53:22;;;;;;;11.57;6.53;;;;;;;11.57;43.78;94629.72;4966577;28;20067;-75
2021/10/27 11:55:48;;;;;;;9.48;5.60;;;;;;;11.37;43.53;94622.09;4964627;28;20104;-75
2021/10/27 11:58:13;;;;;;;8.50;6.53;;;;;;;11.38;43.86;94626.34;4966436;28;20709;-74
2021/10/27 12:00:44;;;;;;;7.05;5.40;;;;;;;11.45;43.57;94608.06;4968900;28;20034;-73
2021/10/27 12:03:19;;;;;;;13.60;11.45;;;;;;;11.60;43.62;94591.78;4984160;28;20042;-75
2021/10/27 12:06:04;;;;;;;7.53;5.40;;;;;;;11.52;43.18;94605.84;4966890;28;20511;-74
2021/10/27 12:19:07;;;;;;;6.50;4.85;;;;;;;11.95;42.67;94588.34;4962968;28;20034;-74
2021/10/27 12:21:35;;;;;;;6.20;4.88;;;;;;;12.04;42.18;94599.84;4962658;28;20026;-74
2021/10/27 12:24:02;;;;;;;10.20;5.25;;;;;;;12.46;42.25;94598.56;4965688;28;20174;-75
2021/10/27 12:26:48;;;;;;;7.68;5.65;;;;;;;12.32;41.74;94597.06;4971536;28;20047;-74
2021/10/27 12:29:26;;;;;;;9.63;6.22;;;;;;;12.40;41.15;94604.31;4969583;28;20031;-75
2021/10/27 12:32:05;;;;;;;8.38;5.03;;;;;;;12.60;41.47;94592.38;4963555;28;20043;-74
2021/10/27 12:34:31;;;;;;;8.43;5.95;;;;;;;12.72;41.07;94596.03;4966177;28;20043;-75
2021/10/27 12:36:59;;;;;;;10.23;6.22;;;;;;;12.51;41.27;94554.16;4968653;28;20512;-74
2021/10/27 12:39:41;;;;;;;6.20;4.80;;;;;;;13.03;40.73;94605.91;4967927;28;20198;-74
2021/10/27 12:42:11;;;;;;;7.55;5.25;;;;;;;12.48;41.21;94590.25;4964783;28;20512;-75
2021/10/27 12:44:53;;;;;;;6.43;5.55;;;;;;;12.70;42.42;94600.91;4961415;28;20042;-75
2021/10/27 12:47:28;;;;;;;10.02;5.20;;;;;;;12.54;41.14;94583.69;4965372;28;20058;-74
2021/10/27 12:50:11;;;;;;;11.07;6.57;;;;;;;12.78;40.76;94600.16;4963263;28;20038;-75
2021/10/27 12:52:50;;;;;;;6.15;5.35;;;;;;;12.58;41.12;94594.53;4977558;28;20185;-74
2021/10/27 12:55:29;;;;;;;9.85;5.72;;;;;;;13.06;40.09;94589.25;4963109;28;20508;-75
2021/10/27 12:58:05;;;;;;;7.78;5.63;;;;;;;13.23;40.10;94589.31;4961100;28;20117;-75
2021/10/27 13:01:31;;;;;;;23.75;11.57;;;;;;;13.12;39.39;94578.13;4969862;28;20077;-75
2021/10/27 13:08:59;;;;;;;7.43;5.80;;;;;;;13.50;38.76;94567.69;4961251;28;20353;-75
2021/10/27 13:30:19;;;;;;;7.25;5.25;;;;;;;13.79;37.15;94559.06;4965981;28;20081;-74
2021/10/27 13:32:52;;;;;;;6.60;4.53;;;;;;;13.93;37.16;94561.63;4964044;28;20046;-75
2021/10/27 13:35:18;;;;;;;9.75;5.18;;;;;;;13.99;36.28;94561.13;4967551;28;20516;-74
2021/10/27 13:37:44;;;;;;;8.55;6.18;;;;;;;14.10;36.23;94566.94;4977484;28;20442;-74
2021/10/27 13:40:10;;;;;;;8.18;5.00;;;;;;;14.08;35.74;94571.84;4964262;28;20046;-74
2021/10/27 13:42:56;;;;;;;7.85;4.75;;;;;;;13.63;36.06;94582.84;4965699;28;20031;-75
2021/10/27 13:45:28;;;;;;;6.65;4.82;;;;;;;13.98;39.00;94578.28;4962355;28;20038;-75
2021/10/27 13:58:56;;;;;;;4.07;3.30;;;;;;;13.62;37.62;94554.53;4965686;28;20654;-74
2021/10/27 14:06:56;;;;;;;7.28;3.35;;;;;;;13.02;37.73;94564.28;4970826;28;20480;-73
2021/10/27 14:09:31;;;;;;;4.22;3.28;;;;;;;12.97;38.49;94572.44;4969464;28;20023;-74
2021/10/27 14:12:09;;;;;;;3.53;2.83;;;;;;;12.97;38.43;94562.53;4966599;28;20039;-74
2021/10/27 14:15:17;;;;;;;9.45;4.13;;;;;;;12.73;38.88;94570.94;4963424;28;20049;-74
2021/10/27 14:23:13;;;;;;;4.32;3.13;;;;;;;12.52;39.69;94574.44;4966970;28;20067;-73
2021/10/27 15:43:11;;;;;;;6.38;4.70;;;;;;;10.02;45.65;94606.44;4966316;28;20037;-76
2021/10/27 15:51:07;;;;;;;7.13;5.22;;;;;;;9.67;45.94;94604.31;4968693;28;20037;-75
2021/10/27 15:53:36;;;;;;;6.85;4.82;;;;;;;9.54;45.96;94605.81;4971125;28;20532;-74
2021/10/27 15:56:03;;;;;;;10.07;4.50;;;;;;;9.51;46.25;94622.31;4966653;28;20038;-75
2021/10/27 15:58:28;;;;;;;7.75;4.25;;;;;;;9.63;46.06;94619.25;4965893;28;20034;-75
2021/10/27 16:00:54;;;;;;;7.30;5.10;;;;;;;9.48;46.46;94611.50;4969251;28;20057;-74
2021/10/27 16:03:19;;;;;;;7.07;5.20;;;;;;;9.48;46.45;94622.91;4966214;28;20673;-74
2021/10/27 16:05:47;;;;;;;7.63;4.90;;;;;;;9.57;46.56;94623.03;4967994;28;20066;-74
2021/10/27 16:08:15;;;;;;;7.75;4.78;;;;;;;9.53;46.31;94630.00;4970193;28;20606;-74
2021/10/27 16:10:42;;;;;;;7.20;5.10;;;;;;;9.30;47.28;94639.59;4964956;28;20057;-75
2021/10/27 16:13:09;;;;;;;5.55;4.68;;;;;;;9.29;46.92;94630.06;4966186;28;20059;-74
2021/10/27 16:15:38;;;;;;;9.25;5.63;;;;;;;9.32;46.95;94640.88;4970150;28;20054;-75
2021/10/27 16:18:06;;;;;;;8.63;5.47;;;;;;;9.27;47.28;94646.25;4968533;28;20409;-75
2021/10/27 16:20:34;;;;;;;9.35;6.75;;;;;;;9.44;46.63;94637.81;4964983;28;20924;-75
2021/10/27 16:23:00;;;;;;;12.45;7.60;;;;;;;9.64;46.34;94632.22;4967785;28;20051;-74
2021/10/27 16:25:26;;;;;;;9.77;7.57;;;;;;;9.79;46.49;94655.13;4962416;28;20054;-75
2021/10/27 16:27:52;;;;;;;9.68;6.82;;;;;;;9.68;46.47;94643.09;4964529;28;20441;-75